19分钟前
罗盘
风向 的 风向 的 风向 到 风向 270° Teuge International Airport 8/26
风: 11 千吨, 4 beaufort
0 500 1.500 3.000 5.000 8.000 10.000
FEW 500 ft
BKN 600 ft
OVC 800 ft
METAR EHVK 301225Z AUTO 27011KT 240V310 4600 -RA FEW005 BKN006 OVC008 10/09 Q1006 RERA REDZ YLO

METAR定义 | 嵌入

24小时趋势

航班类别VFRLIFR
温度10 °C2 °C
风速18 千吨0 千吨
能见度10 公里+0 米

更多历史数据

下载我们的安卓应用程序

从你的主屏幕上轻松地访问你的航空天气。
只需一次付费,您就可以获得无广告的体验。

您会帮助我们保持Metar-Taf.com正常运行吗?
您的贡献有助于网站的进一步开发并支付费用。

没有更多广告

您是捐款5美元还是更多?然后,我们将永远不会再向您展示广告,这是我们永恒的感谢!
捐赠前先登录

METAR Teuge International Airport

Teuge International Airport是Deventer,荷兰中的小机场。 机场有{a,plural,=1{一条跑道} other{#跑道}}: 8/26

Teuge International Airport最近未发布观察结果。相反,我们向您显示69 km的报告Volkel Air Base。 该报告是针对2021年11月30日 13:25, 当地时间进行的。

机场观察

风来自西 (270°)方向,速度为11 千吨。 风向在西南西 (240°)和北西 (310°)之间变化。

可见度为4,6 公里。

有几云在500 ft的高度, 碎云在600 ft的高度 和 乌云密布在800 ft的高度。 破损或更高的上限为600 ft。

当前天气为光 雨。 温度为10 °C,阵风为6 °C。 露点为9 °C,相对湿度为94%。 海平面上的气压为1006 压力 (QNH)。 最近是雨, 细雨。

白天

今天,太阳从08:21升起,在16:27降落。 这适用于Teuge International Airport,世界夏令时可能有所不同。 当地时间与世界标准时间之间的时差为+1 小时。 当前,没有夏令时有效。

公司介绍

在这个机场,你可以找到飞行学校。 这个机场上的公司有Vliegles.nl, E-Flight Academy, Flight School Teuge, van de Bunte Aviation 和 Special Air Academy。

体会

在这个机场有飞行课程。 你可以在没有任何经验的情况下预订飞行课程。 在Teuge International Airport预订最多的飞行课程类型是Cessna flying lesson。 这些课程的价格从€ 149开始。 在这里阅读更多关于Cessna flying lesson的信息。你也可以在这个网站上进行预订。

您是否要在网站上Teuge International Airport飞行的天气? 阅读更多   自由!